createdAt,value
2022-09-23T00:01:15.189Z,68.49
2022-09-23T00:03:43.333Z,68.62
2022-09-23T00:06:12.684Z,68.23
2022-09-23T00:08:40.504Z,68.26
2022-09-23T00:11:12.761Z,67.89
2022-09-23T00:13:40.901Z,68.06
2022-09-23T00:16:09.764Z,67.89
2022-09-23T00:18:36.711Z,68.12
2022-09-23T00:21:08.358Z,67.85
2022-09-23T00:23:34.928Z,68.47
2022-09-23T00:26:03.344Z,68.27
2022-09-23T00:28:30.858Z,68.11
2022-09-23T00:31:01.734Z,68.39
2022-09-23T00:33:29.915Z,67.83
2022-09-23T00:36:01.595Z,68.33
2022-09-23T00:38:28.641Z,68.28
2022-09-23T00:40:55.594Z,68.14
2022-09-23T00:43:54.921Z,67.80
2022-09-23T00:46:40.224Z,68.05
2022-09-23T00:49:10.919Z,68.03
2022-09-23T00:51:40.461Z,68.22
2022-09-23T00:54:07.237Z,67.92
2022-09-23T00:56:35.017Z,68.21
2022-09-23T00:59:02.137Z,68.39
2022-09-23T01:01:28.936Z,68.14
2022-09-23T01:03:56.407Z,68.22
2022-09-23T01:06:23.113Z,68.28
2022-09-23T01:08:49.958Z,68.30
2022-09-23T01:11:28.616Z,68.29
2022-09-23T01:14:13.864Z,68.13
2022-09-23T01:17:16.575Z,68.45
2022-09-23T01:20:03.406Z,68.43
2022-09-23T01:22:29.957Z,68.23
2022-09-23T01:25:15.160Z,68.36
2022-09-23T01:28:17.315Z,68.28
2022-09-23T01:30:52.979Z,68.18
2022-09-23T01:33:26.311Z,68.20
2022-09-23T01:36:01.224Z,68.02
2022-09-23T01:38:50.143Z,68.28
2022-09-23T01:41:29.324Z,68.57
2022-09-23T01:44:34.990Z,68.69
2022-09-23T01:47:17.412Z,68.67
2022-09-23T01:50:24.626Z,68.62
2022-09-23T01:52:53.580Z,68.85
2022-09-23T01:55:28.599Z,68.80
2022-09-23T01:58:16.326Z,69.08
2022-09-23T02:00:53.220Z,69.13
2022-09-23T02:03:32.481Z,68.79
2022-09-23T02:06:03.795Z,68.96
2022-09-23T02:08:38.508Z,68.70
2022-09-23T02:11:15.375Z,68.87
2022-09-23T02:13:50.607Z,69.16
2022-09-23T02:16:25.618Z,69.47
2022-09-23T02:19:02.746Z,69.43
2022-09-23T02:21:58.980Z,69.61
2022-09-23T02:24:30.938Z,69.61
2022-09-23T02:27:18.513Z,69.64
2022-09-23T02:29:45.047Z,69.72
2022-09-23T02:32:42.952Z,69.42
2022-09-23T02:35:33.259Z,69.30
2022-09-23T02:37:59.918Z,69.08
2022-09-23T02:40:46.114Z,69.29
2022-09-23T02:43:17.787Z,69.24
2022-09-23T02:45:44.972Z,69.12
2022-09-23T02:48:20.435Z,69.05
2022-09-23T02:50:47.856Z,69.34
2022-09-23T02:53:16.253Z,69.27
2022-09-23T02:55:42.994Z,69.43
2022-09-23T02:58:10.399Z,68.76
2022-09-23T03:00:52.766Z,68.95
2022-09-23T03:04:06.846Z,68.87
2022-09-23T03:06:56.096Z,69.06
2022-09-23T03:09:26.318Z,69.09
2022-09-23T03:12:16.867Z,69.06
2022-09-23T03:15:24.061Z,69.24
2022-09-23T03:18:12.249Z,69.22
2022-09-23T03:20:46.356Z,69.19
2022-09-23T03:23:15.311Z,69.27
2022-09-23T03:25:44.752Z,68.95
2022-09-23T03:28:12.093Z,69.15
2022-09-23T03:30:39.569Z,68.76
2022-09-23T03:33:08.259Z,68.79
2022-09-23T03:35:57.402Z,68.95
2022-09-23T03:38:26.269Z,68.63
2022-09-23T03:40:54.944Z,68.20
2022-09-23T03:43:21.649Z,68.31
2022-09-23T03:45:48.293Z,68.07
2022-09-23T03:48:15.786Z,68.14
2022-09-23T03:50:42.570Z,68.23
2022-09-23T03:53:09.195Z,68.06
2022-09-23T03:55:36.179Z,68.47
2022-09-23T03:58:03.347Z,68.43
2022-09-23T04:00:29.935Z,68.53
2022-09-23T04:02:57.296Z,68.98
2022-09-23T04:05:23.850Z,68.74
2022-09-23T04:07:51.334Z,69.36
2022-09-23T04:10:18.027Z,68.99
2022-09-23T04:12:44.614Z,69.27
2022-09-23T04:20:59.896Z,69.89
2022-09-23T04:23:27.356Z,70.35
2022-09-23T04:25:54.307Z,70.38
2022-09-23T04:28:21.981Z,70.44
2022-09-23T04:30:49.168Z,70.55
2022-09-23T04:33:16.476Z,70.63
2022-09-23T04:35:43.662Z,70.39
2022-09-23T04:38:13.462Z,70.79
2022-09-23T04:40:40.359Z,70.50
2022-09-23T04:43:10.510Z,70.99
2022-09-23T04:45:39.728Z,70.63
2022-09-23T04:48:06.297Z,70.51
2022-09-23T04:50:33.963Z,70.92
2022-09-23T04:53:01.094Z,70.51
2022-09-23T04:55:27.700Z,70.38
2022-09-23T04:57:54.903Z,70.31
2022-09-23T05:00:23.302Z,70.05
2022-09-23T05:02:50.681Z,70.57
2022-09-23T05:05:22.439Z,70.06
2022-09-23T05:07:49.236Z,70.21
2022-09-23T05:10:18.825Z,69.96
2022-09-23T05:12:45.522Z,69.97
2022-09-23T05:15:13.189Z,69.09
2022-09-23T05:17:39.769Z,69.41
2022-09-23T05:20:06.905Z,69.55
2022-09-23T05:22:33.468Z,69.31
2022-09-23T05:25:00.417Z,69.50
2022-09-23T05:27:27.054Z,69.13
2022-09-23T05:29:53.652Z,69.49
2022-09-23T05:32:20.909Z,69.17
2022-09-23T05:34:47.630Z,69.16
2022-09-23T05:37:19.343Z,69.13
2022-09-23T05:39:45.915Z,69.90
2022-09-23T05:42:12.644Z,70.03
2022-09-23T05:44:39.411Z,70.03
2022-09-23T05:47:06.191Z,69.83
2022-09-23T05:49:55.286Z,70.31
2022-09-23T05:52:19.462Z,70.20
2022-09-23T05:54:46.033Z,70.04
2022-09-23T05:57:12.784Z,70.24
2022-09-23T05:59:39.821Z,70.05
2022-09-23T06:02:06.597Z,70.29
2022-09-23T06:04:33.396Z,70.06
2022-09-23T06:07:03.349Z,69.76
2022-09-23T06:09:35.526Z,69.74
2022-09-23T06:12:03.342Z,69.39
2022-09-23T06:14:29.941Z,69.43
2022-09-23T06:16:56.553Z,69.28
2022-09-23T06:19:23.134Z,69.23
2022-09-23T06:21:49.801Z,69.00
2022-09-23T06:24:20.291Z,69.20
2022-09-23T06:26:49.168Z,69.19
2022-09-23T06:29:15.909Z,69.43
2022-09-23T06:31:43.550Z,69.05
2022-09-23T06:34:14.584Z,68.70
2022-09-23T06:36:46.100Z,68.83
2022-09-23T06:39:16.473Z,68.53
2022-09-23T06:41:44.079Z,68.39
2022-09-23T06:44:11.043Z,68.16
2022-09-23T06:46:37.734Z,68.27
2022-09-23T06:49:04.329Z,68.44
2022-09-23T06:51:30.864Z,68.21
2022-09-23T06:53:57.442Z,68.19
2022-09-23T06:56:24.859Z,68.18
2022-09-23T06:58:52.723Z,68.25
2022-09-23T07:01:20.012Z,68.02
2022-09-23T07:03:54.354Z,68.00
2022-09-23T07:06:26.939Z,67.80
2022-09-23T07:08:53.521Z,67.25
2022-09-23T07:11:22.610Z,67.26
2022-09-23T07:13:49.479Z,67.12
2022-09-23T07:16:16.159Z,67.24
2022-09-23T07:18:42.846Z,67.06
2022-09-23T07:21:14.280Z,66.73
2022-09-23T07:23:52.068Z,66.80
2022-09-23T07:26:19.780Z,66.88
2022-09-23T07:28:46.744Z,66.71
2022-09-23T07:31:17.592Z,66.47
2022-09-23T07:33:49.261Z,66.63
2022-09-23T07:36:18.322Z,66.26
2022-09-23T07:38:46.604Z,66.31
2022-09-23T07:41:18.142Z,66.40
2022-09-23T07:43:45.385Z,66.14
2022-09-23T07:46:16.905Z,65.89
2022-09-23T07:48:44.750Z,65.79
2022-09-23T07:51:20.489Z,65.58
2022-09-23T07:53:48.546Z,65.95
2022-09-23T07:56:15.918Z,65.86
2022-09-23T07:58:42.797Z,65.79
2022-09-23T08:01:14.497Z,65.35
2022-09-23T08:03:41.103Z,65.30
2022-09-23T08:06:09.773Z,65.47
2022-09-23T08:08:39.515Z,65.16
2022-09-23T08:11:08.548Z,65.05
2022-09-23T08:13:35.209Z,64.97
2022-09-23T08:16:02.127Z,64.96
2022-09-23T08:18:28.922Z,65.23
2022-09-23T08:20:55.504Z,65.04
2022-09-23T08:23:22.136Z,64.62
2022-09-23T08:25:48.888Z,64.88
2022-09-23T08:28:16.863Z,64.54
2022-09-23T08:30:44.629Z,64.56
2022-09-23T08:33:15.937Z,64.26
2022-09-23T08:35:44.087Z,64.48
2022-09-23T08:38:10.718Z,64.52
2022-09-23T08:40:39.948Z,64.32
2022-09-23T08:43:08.093Z,64.40
2022-09-23T08:45:36.825Z,64.06
2022-09-23T08:48:13.243Z,63.73
2022-09-23T08:51:06.775Z,63.84
2022-09-23T08:53:37.979Z,63.69
2022-09-23T08:56:13.811Z,63.17
2022-09-23T08:59:00.626Z,63.89
2022-09-23T09:01:30.315Z,63.40
2022-09-23T09:04:23.194Z,63.53
2022-09-23T09:07:07.687Z,63.10
2022-09-23T09:10:21.296Z,63.26
2022-09-23T09:12:50.674Z,62.96
2022-09-23T09:15:24.702Z,62.81
2022-09-23T09:18:20.045Z,62.93
2022-09-23T09:21:12.443Z,62.52
2022-09-23T09:23:55.367Z,62.28
2022-09-23T09:26:29.858Z,62.24
2022-09-23T09:29:35.764Z,62.18
2022-09-23T09:32:33.785Z,61.96
2022-09-23T09:35:07.964Z,61.96
2022-09-23T09:37:47.796Z,61.73
2022-09-23T09:40:17.231Z,61.25
2022-09-23T09:42:48.599Z,61.04
2022-09-23T09:45:27.370Z,60.75
2022-09-23T09:48:18.413Z,60.83
2022-09-23T09:50:50.365Z,60.75
2022-09-23T09:53:24.150Z,60.31
2022-09-23T09:56:08.342Z,60.37
2022-09-23T09:58:50.801Z,60.39
2022-09-23T10:01:21.484Z,59.98
2022-09-23T10:03:49.907Z,59.87
2022-09-23T10:06:26.077Z,59.66
2022-09-23T10:09:19.003Z,58.79
2022-09-23T10:12:17.675Z,58.26
2022-09-23T10:14:52.424Z,57.87
2022-09-23T10:17:27.944Z,57.68
2022-09-23T10:20:01.002Z,57.33
2022-09-23T10:22:32.199Z,57.50
2022-09-23T10:25:04.005Z,57.23
2022-09-23T10:27:34.691Z,56.98
2022-09-23T10:30:23.480Z,56.90
2022-09-23T10:32:51.751Z,56.56
2022-09-23T10:35:23.909Z,56.04
2022-09-23T10:37:55.221Z,55.90
2022-09-23T10:40:57.288Z,55.76
2022-09-23T10:44:03.801Z,55.03
2022-09-23T10:46:38.755Z,55.08
2022-09-23T10:49:14.352Z,55.32
2022-09-23T10:52:07.147Z,54.54
2022-09-23T10:55:07.837Z,54.24
2022-09-23T10:57:43.555Z,54.18
2022-09-23T11:00:10.565Z,53.94
2022-09-23T11:02:57.052Z,53.82
2022-09-23T11:05:36.119Z,54.08
2022-09-23T11:08:27.626Z,53.52
2022-09-23T11:11:11.557Z,52.88
2022-09-23T11:13:55.671Z,52.28
2022-09-23T11:16:25.335Z,52.21
2022-09-23T11:19:13.149Z,52.30
2022-09-23T11:21:49.444Z,52.01
2022-09-23T11:24:37.061Z,51.43
2022-09-23T11:27:26.145Z,51.83
2022-09-23T11:30:09.151Z,50.96
2022-09-23T11:33:07.289Z,50.27
2022-09-23T11:35:49.225Z,50.53
2022-09-23T11:38:26.098Z,50.45
2022-09-23T11:40:57.016Z,50.29
2022-09-23T11:43:29.393Z,49.84
2022-09-23T11:46:20.581Z,49.64
2022-09-23T11:49:08.265Z,50.33
2022-09-23T11:51:50.331Z,50.44
2022-09-23T11:54:21.413Z,50.67
2022-09-23T11:56:52.132Z,51.05
2022-09-23T11:59:39.293Z,51.30
2022-09-23T12:02:21.704Z,51.09
2022-09-23T12:04:58.607Z,51.36
2022-09-23T12:07:43.588Z,51.35
2022-09-23T12:10:11.094Z,50.55
2022-09-23T12:13:02.791Z,50.03
2022-09-23T12:15:41.738Z,48.62
2022-09-23T12:18:20.811Z,48.30
2022-09-23T12:21:04.763Z,47.68
2022-09-23T12:23:49.691Z,47.02
2022-09-23T12:26:20.746Z,47.04
2022-09-23T12:28:53.254Z,47.45
2022-09-23T12:31:22.513Z,47.49
2022-09-23T12:33:53.864Z,47.98
2022-09-23T12:36:30.539Z,47.97
2022-09-23T12:39:15.781Z,47.75
2022-09-23T12:41:58.599Z,47.83
2022-09-23T12:44:31.760Z,48.09
2022-09-23T12:47:29.007Z,48.39
2022-09-23T12:49:59.223Z,48.72
2022-09-23T12:52:30.990Z,48.48
2022-09-23T12:55:19.179Z,48.33
2022-09-23T12:57:46.032Z,48.62
2022-09-23T13:00:26.866Z,48.04
2022-09-23T13:03:18.453Z,47.62
2022-09-23T13:06:06.768Z,47.73
2022-09-23T13:08:37.533Z,48.03
2022-09-23T13:11:27.943Z,48.14
2022-09-23T13:13:56.457Z,48.62
2022-09-23T13:16:26.807Z,48.26
2022-09-23T13:18:57.978Z,48.55
2022-09-23T13:21:43.103Z,48.89
2022-09-23T13:24:25.114Z,49.57
2022-09-23T13:26:51.683Z,49.60
2022-09-23T13:29:28.237Z,49.64
2022-09-23T13:31:58.178Z,49.60
2022-09-23T13:34:31.766Z,49.62
2022-09-23T13:36:59.005Z,50.06
2022-09-23T13:39:27.655Z,50.19
2022-09-23T13:41:58.329Z,50.48
2022-09-23T13:44:25.013Z,50.14
2022-09-23T13:46:54.716Z,49.73
2022-09-23T13:49:27.015Z,49.92
2022-09-23T13:51:54.270Z,49.54
2022-09-23T13:54:29.009Z,49.86
2022-09-23T13:56:58.499Z,49.48
2022-09-23T13:59:38.631Z,49.54
2022-09-23T14:02:16.879Z,49.83
2022-09-23T14:04:44.212Z,49.75
2022-09-23T14:07:15.950Z,50.35
2022-09-23T14:09:51.442Z,49.54
2022-09-23T14:12:24.482Z,49.41
2022-09-23T14:14:52.013Z,49.63
2022-09-23T14:17:20.928Z,50.11
2022-09-23T14:19:49.451Z,50.19
2022-09-23T14:22:27.864Z,50.10
2022-09-23T14:24:55.917Z,50.44
2022-09-23T14:27:29.241Z,50.17
2022-09-23T14:29:56.255Z,50.13
2022-09-23T14:32:26.192Z,50.53
2022-09-23T14:35:06.727Z,50.52
2022-09-23T14:37:54.868Z,50.53
2022-09-23T14:40:26.421Z,50.55
2022-09-23T14:43:18.026Z,51.11
2022-09-23T14:45:47.469Z,51.27
2022-09-23T14:48:18.734Z,50.80
2022-09-23T14:50:51.410Z,50.74
2022-09-23T14:53:23.111Z,50.37
2022-09-23T14:56:10.388Z,50.40
2022-09-23T14:58:55.940Z,49.66
2022-09-23T15:01:32.254Z,49.54
2022-09-23T15:04:17.316Z,49.44
2022-09-23T15:06:51.407Z,49.17
2022-09-23T15:09:23.720Z,49.26
2022-09-23T15:11:57.770Z,48.92
2022-09-23T15:14:37.976Z,48.73
2022-09-23T15:17:11.667Z,48.80
2022-09-23T15:19:38.851Z,48.99
2022-09-23T15:22:07.944Z,49.08
2022-09-23T15:24:46.497Z,48.69
2022-09-23T15:27:33.548Z,48.79
2022-09-23T15:30:15.985Z,49.18
2022-09-23T15:32:44.387Z,49.50
2022-09-23T15:35:16.498Z,48.89
2022-09-23T15:37:44.423Z,49.63
2022-09-23T15:40:19.206Z,49.92
2022-09-23T15:42:51.293Z,49.86
2022-09-23T15:45:21.116Z,49.78
2022-09-23T15:47:49.158Z,50.61
2022-09-23T15:50:16.043Z,50.18
2022-09-23T15:52:45.118Z,50.50
2022-09-23T15:55:21.370Z,50.20
2022-09-23T15:57:48.540Z,50.68
2022-09-23T16:00:16.182Z,50.89
2022-09-23T16:02:44.859Z,50.29
2022-09-23T16:05:37.888Z,50.85
2022-09-23T16:08:09.748Z,50.76
2022-09-23T16:10:37.557Z,50.62
2022-09-23T16:13:07.988Z,51.10
2022-09-23T16:15:34.612Z,51.69
2022-09-23T16:18:01.625Z,51.61
2022-09-23T16:20:29.861Z,51.69
2022-09-23T16:22:59.696Z,51.87
2022-09-23T16:25:28.272Z,51.73
2022-09-23T16:27:56.322Z,52.50
2022-09-23T16:30:30.707Z,52.36
2022-09-23T16:32:57.386Z,52.29
2022-09-23T16:35:26.017Z,52.11
2022-09-23T16:37:53.071Z,52.66
2022-09-23T16:40:22.946Z,52.60
2022-09-23T16:42:52.461Z,53.28
2022-09-23T16:45:23.058Z,53.20
2022-09-23T16:47:51.312Z,53.70
2022-09-23T16:50:20.252Z,53.81
2022-09-23T16:52:47.076Z,53.61
2022-09-23T16:55:14.342Z,54.21
2022-09-23T16:57:41.693Z,54.62
2022-09-23T17:00:33.038Z,54.68
2022-09-23T17:03:19.428Z,55.10
2022-09-23T17:05:46.904Z,54.94
2022-09-23T17:08:14.633Z,55.28
2022-09-23T17:10:45.575Z,55.75
2022-09-23T17:13:15.710Z,56.12
2022-09-23T17:15:44.179Z,55.95
2022-09-23T17:18:10.901Z,56.05
2022-09-23T17:20:38.835Z,56.18
2022-09-23T17:23:06.097Z,56.51
2022-09-23T17:25:34.157Z,56.21
2022-09-23T17:28:00.980Z,56.42
2022-09-23T17:30:28.885Z,56.89
2022-09-23T17:32:55.495Z,56.81
2022-09-23T17:35:22.093Z,56.87
2022-09-23T17:37:48.697Z,57.05
2022-09-23T17:40:15.577Z,56.80
2022-09-23T17:42:42.332Z,57.30
2022-09-23T17:45:12.542Z,56.92
2022-09-23T17:47:41.727Z,57.10
2022-09-23T17:50:08.771Z,57.17
2022-09-23T17:52:35.353Z,57.79
2022-09-23T17:55:01.997Z,57.62
2022-09-23T17:57:28.672Z,57.31
2022-09-23T17:59:56.202Z,57.50
2022-09-23T18:02:23.089Z,58.07
2022-09-23T18:04:49.915Z,57.75
2022-09-23T18:07:16.604Z,58.04
2022-09-23T18:09:43.194Z,57.97
2022-09-23T18:12:09.874Z,57.91
2022-09-23T18:14:36.469Z,58.29
2022-09-23T18:17:03.071Z,58.44
2022-09-23T18:19:29.684Z,58.40
2022-09-23T18:21:57.370Z,58.99
2022-09-23T18:24:33.154Z,58.99
2022-09-23T18:27:00.904Z,59.44
2022-09-23T18:29:27.699Z,59.85
2022-09-23T18:31:54.421Z,59.81
2022-09-23T18:34:21.137Z,59.71
2022-09-23T18:36:48.037Z,59.97
2022-09-23T18:39:15.006Z,60.55
2022-09-23T18:41:41.627Z,60.02
2022-09-23T18:44:08.780Z,60.91
2022-09-23T18:46:35.916Z,60.57
2022-09-23T18:49:21.220Z,60.75
2022-09-23T18:51:54.716Z,61.18
2022-09-23T18:54:22.724Z,60.89
2022-09-23T18:56:50.164Z,61.32
2022-09-23T18:59:18.159Z,61.31
2022-09-23T19:01:46.037Z,61.02
2022-09-23T19:04:14.221Z,61.74
2022-09-23T19:06:41.008Z,62.18
2022-09-23T19:09:07.856Z,61.91
2022-09-23T19:11:36.373Z,61.88
2022-09-23T19:14:05.989Z,62.46
2022-09-23T19:16:33.577Z,62.57
2022-09-23T19:19:00.822Z,62.59
2022-09-23T19:21:28.544Z,62.79
2022-09-23T19:24:03.953Z,63.17
2022-09-23T19:26:36.841Z,63.34
2022-09-23T19:29:04.541Z,63.48
2022-09-23T19:31:33.554Z,63.38
2022-09-23T19:34:01.427Z,63.98
2022-09-23T19:36:35.377Z,63.89
2022-09-23T19:39:04.121Z,64.06
2022-09-23T19:41:32.296Z,64.34
2022-09-23T19:44:03.366Z,64.44
2022-09-23T19:46:31.221Z,64.95
2022-09-23T19:48:58.632Z,64.64
2022-09-23T19:51:25.384Z,65.08
2022-09-23T19:53:52.666Z,65.06
2022-09-23T19:56:20.034Z,65.30
2022-09-23T19:58:51.616Z,65.37
2022-09-23T20:01:18.563Z,65.43
2022-09-23T20:03:45.768Z,65.82
2022-09-23T20:06:12.475Z,65.70
2022-09-23T20:08:39.439Z,65.90
2022-09-23T20:11:28.773Z,66.63
2022-09-23T20:14:04.058Z,66.50
2022-09-23T20:16:33.160Z,66.67
2022-09-23T20:19:00.411Z,66.56
2022-09-23T20:21:28.450Z,66.95
2022-09-23T20:23:55.434Z,67.25
2022-09-23T20:26:40.782Z,66.81
2022-09-23T20:29:09.030Z,67.03
2022-09-23T20:31:36.026Z,67.08
2022-09-23T20:34:05.814Z,67.42
2022-09-23T20:36:33.291Z,67.53
2022-09-23T20:39:01.717Z,67.58
2022-09-23T20:41:37.695Z,67.88
2022-09-23T20:44:06.512Z,67.82
2022-09-23T20:46:33.310Z,67.84
2022-09-23T20:49:00.013Z,68.20
2022-09-23T20:51:26.789Z,68.34
2022-09-23T20:53:53.425Z,69.32
2022-09-23T20:56:21.537Z,69.89
2022-09-23T20:58:50.452Z,70.44
2022-09-23T21:01:17.867Z,71.25
2022-09-23T21:03:46.634Z,71.74
2022-09-23T21:06:16.946Z,72.06
2022-09-23T21:08:44.689Z,72.94
2022-09-23T21:11:15.060Z,72.76
2022-09-23T21:13:49.237Z,73.12
2022-09-23T21:16:17.820Z,73.40
2022-09-23T21:18:45.157Z,73.97
2022-09-23T21:21:14.170Z,74.24
2022-09-23T21:23:41.797Z,74.19
2022-09-23T21:26:11.035Z,74.78
2022-09-23T21:28:42.702Z,75.26
2022-09-23T21:31:11.801Z,75.34
2022-09-23T21:33:38.473Z,75.76
2022-09-23T21:36:06.655Z,75.77
2022-09-23T21:38:37.366Z,75.94
2022-09-23T21:41:06.723Z,75.98
2022-09-23T21:43:38.590Z,75.73
2022-09-23T21:46:07.951Z,75.91
2022-09-23T21:48:36.678Z,75.63
2022-09-23T21:51:05.642Z,75.83
2022-09-23T21:53:34.084Z,75.58
2022-09-23T21:56:11.815Z,74.91
2022-09-23T21:58:40.047Z,75.20
2022-09-23T22:01:26.896Z,74.73
2022-09-23T22:04:05.384Z,75.05
2022-09-23T22:06:32.234Z,74.85
2022-09-23T22:09:01.259Z,74.71
2022-09-23T22:11:51.137Z,74.57
2022-09-23T22:14:19.259Z,74.18
2022-09-23T22:16:45.961Z,74.05
2022-09-23T22:19:15.784Z,73.69
2022-09-23T22:21:45.346Z,73.69
2022-09-23T22:24:12.807Z,74.02
2022-09-23T22:26:44.177Z,75.03
2022-09-23T22:29:31.749Z,75.68
2022-09-23T22:32:20.930Z,76.01
2022-09-23T22:34:52.591Z,76.35
2022-09-23T22:37:21.913Z,77.36
2022-09-23T22:39:48.589Z,77.43
2022-09-23T22:42:15.198Z,78.13
2022-09-23T22:44:41.993Z,78.32
2022-09-23T22:47:09.564Z,78.89
2022-09-23T22:49:36.475Z,79.04
2022-09-23T22:52:05.780Z,79.18
2022-09-23T22:54:34.093Z,79.95
2022-09-23T22:57:03.358Z,80.30
2022-09-23T22:59:29.983Z,80.34
2022-09-23T23:01:57.315Z,80.80
2022-09-23T23:04:23.991Z,81.49
2022-09-23T23:06:51.014Z,82.14
2022-09-23T23:09:18.884Z,82.23
2022-09-23T23:11:45.875Z,83.28
2022-09-23T23:14:14.235Z,83.47
2022-09-23T23:16:42.148Z,83.75
2022-09-23T23:19:13.271Z,84.14
2022-09-23T23:21:43.406Z,84.20
2022-09-23T23:24:16.181Z,84.55
2022-09-23T23:26:43.256Z,84.57
2022-09-23T23:29:11.859Z,84.95
2022-09-23T23:31:38.504Z,84.90
2022-09-23T23:34:06.022Z,85.07
2022-09-23T23:36:32.665Z,84.91
2022-09-23T23:38:59.369Z,85.03
2022-09-23T23:41:26.014Z,85.16
2022-09-23T23:43:58.474Z,85.48
2022-09-23T23:46:26.609Z,85.63
2022-09-23T23:48:53.780Z,85.57
2022-09-23T23:51:20.959Z,85.63
2022-09-23T23:53:48.390Z,85.87
2022-09-23T23:56:17.213Z,85.77
2022-09-23T23:58:44.295Z,86.41
